sensor_id;sensor_type;location;lat;lon;timestamp;P1;durP1;ratioP1;P2;durP2;ratioP2
75535;SDS011;64119;52.070;20.804;2022-11-02T00:01:48;41.40;;;17.50;;
75535;SDS011;64119;52.070;20.804;2022-11-02T00:04:16;26.80;;;11.40;;
75535;SDS011;64119;52.070;20.804;2022-11-02T00:06:43;40.80;;;17.80;;
75535;SDS011;64119;52.070;20.804;2022-11-02T00:09:11;27.80;;;13.80;;
75535;SDS011;64119;52.070;20.804;2022-11-02T00:11:39;34.50;;;16.20;;
75535;SDS011;64119;52.070;20.804;2022-11-02T00:14:06;35.90;;;16.10;;
75535;SDS011;64119;52.070;20.804;2022-11-02T00:16:35;38.50;;;17.10;;
75535;SDS011;64119;52.070;20.804;2022-11-02T00:19:04;41.60;;;17.10;;
75535;SDS011;64119;52.070;20.804;2022-11-02T00:21:33;31.70;;;13.80;;
75535;SDS011;64119;52.070;20.804;2022-11-02T00:24:02;37.60;;;15.40;;
75535;SDS011;64119;52.070;20.804;2022-11-02T00:26:32;27.40;;;14.20;;
75535;SDS011;64119;52.070;20.804;2022-11-02T00:29:03;37.70;;;18.00;;
75535;SDS011;64119;52.070;20.804;2022-11-02T00:31:32;33.20;;;15.60;;
75535;SDS011;64119;52.070;20.804;2022-11-02T00:34:00;27.00;;;12.80;;
75535;SDS011;64119;52.070;20.804;2022-11-02T00:36:28;26.50;;;14.10;;
75535;SDS011;64119;52.070;20.804;2022-11-02T00:38:57;30.00;;;13.80;;
75535;SDS011;64119;52.070;20.804;2022-11-02T00:41:25;26.20;;;11.80;;
75535;SDS011;64119;52.070;20.804;2022-11-02T00:43:53;21.80;;;10.80;;
75535;SDS011;64119;52.070;20.804;2022-11-02T00:46:20;40.40;;;17.40;;
75535;SDS011;64119;52.070;20.804;2022-11-02T00:48:48;32.70;;;14.30;;
75535;SDS011;64119;52.070;20.804;2022-11-02T00:51:16;35.20;;;16.10;;
75535;SDS011;64119;52.070;20.804;2022-11-02T00:53:44;33.80;;;14.40;;
75535;SDS011;64119;52.070;20.804;2022-11-02T00:56:12;30.20;;;14.60;;
75535;SDS011;64119;52.070;20.804;2022-11-02T00:58:40;31.80;;;15.20;;
75535;SDS011;64119;52.070;20.804;2022-11-02T01:01:08;35.30;;;16.10;;
75535;SDS011;64119;52.070;20.804;2022-11-02T01:03:36;39.40;;;16.80;;
75535;SDS011;64119;52.070;20.804;2022-11-02T01:06:08;36.60;;;16.20;;
75535;SDS011;64119;52.070;20.804;2022-11-02T01:08:40;38.60;;;17.30;;
75535;SDS011;64119;52.070;20.804;2022-11-02T01:11:18;38.80;;;17.20;;
75535;SDS011;64119;52.070;20.804;2022-11-02T01:13:48;39.00;;;17.50;;
75535;SDS011;64119;52.070;20.804;2022-11-02T01:16:17;35.70;;;16.20;;
75535;SDS011;64119;52.070;20.804;2022-11-02T01:18:45;44.00;;;18.00;;
75535;SDS011;64119;52.070;20.804;2022-11-02T01:21:13;33.20;;;15.30;;
75535;SDS011;64119;52.070;20.804;2022-11-02T01:23:41;39.20;;;18.60;;
75535;SDS011;64119;52.070;20.804;2022-11-02T01:26:09;39.40;;;17.30;;
75535;SDS011;64119;52.070;20.804;2022-11-02T01:28:39;44.50;;;19.20;;
75535;SDS011;64119;52.070;20.804;2022-11-02T01:31:07;41.20;;;18.80;;
75535;SDS011;64119;52.070;20.804;2022-11-02T01:33:36;40.40;;;16.60;;
75535;SDS011;64119;52.070;20.804;2022-11-02T01:36:05;38.40;;;18.30;;
75535;SDS011;64119;52.070;20.804;2022-11-02T01:38:33;33.80;;;17.00;;
75535;SDS011;64119;52.070;20.804;2022-11-02T01:41:01;40.60;;;18.30;;
75535;SDS011;64119;52.070;20.804;2022-11-02T01:43:34;48.10;;;21.10;;
75535;SDS011;64119;52.070;20.804;2022-11-02T01:48:41;38.10;;;18.20;;
75535;SDS011;64119;52.070;20.804;2022-11-02T01:51:13;43.10;;;18.80;;
75535;SDS011;64119;52.070;20.804;2022-11-02T01:53:46;41.60;;;18.00;;
75535;SDS011;64119;52.070;20.804;2022-11-02T01:56:16;39.90;;;18.40;;
75535;SDS011;64119;52.070;20.804;2022-11-02T01:58:56;46.00;;;19.40;;
75535;SDS011;64119;52.070;20.804;2022-11-02T02:01:28;42.80;;;19.00;;
75535;SDS011;64119;52.070;20.804;2022-11-02T02:03:57;43.60;;;19.40;;
75535;SDS011;64119;52.070;20.804;2022-11-02T02:06:26;48.00;;;20.90;;
75535;SDS011;64119;52.070;20.804;2022-11-02T02:08:55;41.50;;;18.60;;
75535;SDS011;64119;52.070;20.804;2022-11-02T02:11:32;49.00;;;18.50;;
75535;SDS011;64119;52.070;20.804;2022-11-02T02:16:46;42.50;;;18.90;;
75535;SDS011;64119;52.070;20.804;2022-11-02T02:30:54;50.90;;;21.90;;
75535;SDS011;64119;52.070;20.804;2022-11-02T02:33:34;46.40;;;20.20;;
75535;SDS011;64119;52.070;20.804;2022-11-02T02:36:14;45.00;;;20.40;;
75535;SDS011;64119;52.070;20.804;2022-11-02T02:41:18;57.10;;;23.80;;
75535;SDS011;64119;52.070;20.804;2022-11-02T02:43:57;56.90;;;23.00;;
75535;SDS011;64119;52.070;20.804;2022-11-02T02:46:36;49.10;;;22.00;;
75535;SDS011;64119;52.070;20.804;2022-11-02T02:49:14;58.80;;;22.60;;
75535;SDS011;64119;52.070;20.804;2022-11-02T02:51:46;47.60;;;20.80;;
75535;SDS011;64119;52.070;20.804;2022-11-02T02:54:19;41.30;;;18.80;;
75535;SDS011;64119;52.070;20.804;2022-11-02T02:56:51;43.00;;;19.00;;
75535;SDS011;64119;52.070;20.804;2022-11-02T02:59:23;54.20;;;23.00;;
75535;SDS011;64119;52.070;20.804;2022-11-02T03:01:57;42.90;;;19.20;;
75535;SDS011;64119;52.070;20.804;2022-11-02T03:04:25;40.20;;;17.30;;
75535;SDS011;64119;52.070;20.804;2022-11-02T03:06:53;53.40;;;24.10;;
75535;SDS011;64119;52.070;20.804;2022-11-02T03:09:31;57.50;;;23.00;;
75535;SDS011;64119;52.070;20.804;2022-11-02T03:23:12;62.00;;;23.40;;
75535;SDS011;64119;52.070;20.804;2022-11-02T03:26:05;65.20;;;25.90;;
75535;SDS011;64119;52.070;20.804;2022-11-02T03:29:07;54.10;;;24.90;;
75535;SDS011;64119;52.070;20.804;2022-11-02T03:34:38;56.70;;;24.60;;
75535;SDS011;64119;52.070;20.804;2022-11-02T03:37:26;46.90;;;23.40;;
75535;SDS011;64119;52.070;20.804;2022-11-02T03:40:02;63.10;;;25.20;;
75535;SDS011;64119;52.070;20.804;2022-11-02T03:42:39;63.40;;;26.20;;
75535;SDS011;64119;52.070;20.804;2022-11-02T03:45:11;56.00;;;23.30;;
75535;SDS011;64119;52.070;20.804;2022-11-02T03:47:43;58.50;;;25.80;;
75535;SDS011;64119;52.070;20.804;2022-11-02T03:50:15;56.60;;;25.00;;
75535;SDS011;64119;52.070;20.804;2022-11-02T03:52:50;58.30;;;24.40;;
75535;SDS011;64119;52.070;20.804;2022-11-02T03:55:27;53.70;;;23.90;;
75535;SDS011;64119;52.070;20.804;2022-11-02T03:57:57;63.70;;;25.70;;
75535;SDS011;64119;52.070;20.804;2022-11-02T04:00:28;58.10;;;25.40;;
75535;SDS011;64119;52.070;20.804;2022-11-02T04:03:03;60.80;;;24.70;;
75535;SDS011;64119;52.070;20.804;2022-11-02T04:05:38;56.40;;;22.50;;
75535;SDS011;64119;52.070;20.804;2022-11-02T04:08:25;53.60;;;23.50;;
75535;SDS011;64119;52.070;20.804;2022-11-02T04:11:02;51.00;;;24.00;;
75535;SDS011;64119;52.070;20.804;2022-11-02T04:13:51;46.40;;;21.50;;
75535;SDS011;64119;52.070;20.804;2022-11-02T04:16:39;62.20;;;24.50;;
75535;SDS011;64119;52.070;20.804;2022-11-02T04:19:11;61.50;;;24.90;;
75535;SDS011;64119;52.070;20.804;2022-11-02T04:21:57;57.20;;;25.10;;
75535;SDS011;64119;52.070;20.804;2022-11-02T04:24:45;51.40;;;23.80;;
75535;SDS011;64119;52.070;20.804;2022-11-02T04:27:34;50.00;;;22.30;;
75535;SDS011;64119;52.070;20.804;2022-11-02T04:30:03;55.00;;;22.60;;
75535;SDS011;64119;52.070;20.804;2022-11-02T04:32:39;48.30;;;22.50;;
75535;SDS011;64119;52.070;20.804;2022-11-02T04:35:27;55.60;;;23.90;;
75535;SDS011;64119;52.070;20.804;2022-11-02T04:37:56;59.90;;;24.40;;
75535;SDS011;64119;52.070;20.804;2022-11-02T04:40:43;53.60;;;23.40;;
75535;SDS011;64119;52.070;20.804;2022-11-02T04:43:11;50.10;;;22.80;;
75535;SDS011;64119;52.070;20.804;2022-11-02T04:45:39;48.50;;;23.50;;
75535;SDS011;64119;52.070;20.804;2022-11-02T04:48:08;56.00;;;24.00;;
75535;SDS011;64119;52.070;20.804;2022-11-02T04:50:37;55.20;;;23.90;;
75535;SDS011;64119;52.070;20.804;2022-11-02T04:53:05;48.60;;;22.50;;
75535;SDS011;64119;52.070;20.804;2022-11-02T04:55:37;50.80;;;22.20;;
75535;SDS011;64119;52.070;20.804;2022-11-02T04:58:06;52.40;;;22.10;;
75535;SDS011;64119;52.070;20.804;2022-11-02T05:00:34;51.80;;;25.00;;
75535;SDS011;64119;52.070;20.804;2022-11-02T05:03:02;46.20;;;20.50;;
75535;SDS011;64119;52.070;20.804;2022-11-02T05:05:36;44.90;;;21.40;;
75535;SDS011;64119;52.070;20.804;2022-11-02T05:08:04;42.00;;;21.40;;
75535;SDS011;64119;52.070;20.804;2022-11-02T05:10:33;50.50;;;22.30;;
75535;SDS011;64119;52.070;20.804;2022-11-02T05:13:01;51.90;;;23.40;;
75535;SDS011;64119;52.070;20.804;2022-11-02T05:15:31;49.50;;;22.00;;
75535;SDS011;64119;52.070;20.804;2022-11-02T05:18:00;43.00;;;20.40;;
75535;SDS011;64119;52.070;20.804;2022-11-02T05:20:29;52.10;;;23.10;;
75535;SDS011;64119;52.070;20.804;2022-11-02T05:22:57;48.80;;;22.90;;
75535;SDS011;64119;52.070;20.804;2022-11-02T05:25:24;35.90;;;18.40;;
75535;SDS011;64119;52.070;20.804;2022-11-02T05:27:54;49.10;;;23.10;;
75535;SDS011;64119;52.070;20.804;2022-11-02T05:30:23;42.10;;;20.60;;
75535;SDS011;64119;52.070;20.804;2022-11-02T05:32:55;38.90;;;17.40;;
75535;SDS011;64119;52.070;20.804;2022-11-02T05:35:24;46.90;;;21.70;;
75535;SDS011;64119;52.070;20.804;2022-11-02T05:37:56;48.10;;;20.80;;
75535;SDS011;64119;52.070;20.804;2022-11-02T05:40:24;42.30;;;20.30;;
75535;SDS011;64119;52.070;20.804;2022-11-02T05:42:57;47.50;;;22.20;;
75535;SDS011;64119;52.070;20.804;2022-11-02T05:45:26;26.40;;;11.70;;
75535;SDS011;64119;52.070;20.804;2022-11-02T05:47:54;52.90;;;23.90;;
75535;SDS011;64119;52.070;20.804;2022-11-02T05:50:22;38.00;;;17.90;;
75535;SDS011;64119;52.070;20.804;2022-11-02T05:52:52;33.30;;;16.90;;
75535;SDS011;64119;52.070;20.804;2022-11-02T05:55:20;31.90;;;17.60;;
75535;SDS011;64119;52.070;20.804;2022-11-02T05:57:51;32.50;;;16.30;;
75535;SDS011;64119;52.070;20.804;2022-11-02T06:00:21;41.00;;;20.30;;
75535;SDS011;64119;52.070;20.804;2022-11-02T06:02:57;27.10;;;14.50;;
75535;SDS011;64119;52.070;20.804;2022-11-02T06:05:25;39.90;;;21.20;;
75535;SDS011;64119;52.070;20.804;2022-11-02T06:07:56;39.40;;;18.40;;
75535;SDS011;64119;52.070;20.804;2022-11-02T06:10:25;38.10;;;18.50;;
75535;SDS011;64119;52.070;20.804;2022-11-02T06:12:55;38.80;;;17.30;;
75535;SDS011;64119;52.070;20.804;2022-11-02T06:15:27;29.40;;;13.10;;
75535;SDS011;64119;52.070;20.804;2022-11-02T06:17:57;34.90;;;16.70;;
75535;SDS011;64119;52.070;20.804;2022-11-02T06:20:26;45.80;;;21.00;;
75535;SDS011;64119;52.070;20.804;2022-11-02T06:22:54;39.90;;;19.50;;
75535;SDS011;64119;52.070;20.804;2022-11-02T06:25:21;24.20;;;11.10;;
75535;SDS011;64119;52.070;20.804;2022-11-02T06:27:50;39.50;;;19.70;;
75535;SDS011;64119;52.070;20.804;2022-11-02T06:30:19;43.70;;;19.60;;
75535;SDS011;64119;52.070;20.804;2022-11-02T06:32:48;42.30;;;19.20;;
75535;SDS011;64119;52.070;20.804;2022-11-02T06:35:17;44.40;;;20.50;;
75535;SDS011;64119;52.070;20.804;2022-11-02T06:42:41;47.70;;;21.00;;
75535;SDS011;64119;52.070;20.804;2022-11-02T06:45:29;36.60;;;18.60;;
75535;SDS011;64119;52.070;20.804;2022-11-02T06:47:57;41.00;;;19.40;;
75535;SDS011;64119;52.070;20.804;2022-11-02T06:50:25;36.90;;;17.70;;
75535;SDS011;64119;52.070;20.804;2022-11-02T06:52:53;40.20;;;18.30;;
75535;SDS011;64119;52.070;20.804;2022-11-02T06:55:20;38.70;;;17.90;;
75535;SDS011;64119;52.070;20.804;2022-11-02T06:57:48;48.60;;;21.10;;
75535;SDS011;64119;52.070;20.804;2022-11-02T07:00:16;41.00;;;19.40;;
75535;SDS011;64119;52.070;20.804;2022-11-02T07:02:59;39.10;;;18.90;;
75535;SDS011;64119;52.070;20.804;2022-11-02T07:05:29;35.90;;;18.20;;
75535;SDS011;64119;52.070;20.804;2022-11-02T07:07:58;28.50;;;15.20;;
75535;SDS011;64119;52.070;20.804;2022-11-02T07:10:26;35.40;;;16.40;;
75535;SDS011;64119;52.070;20.804;2022-11-02T07:12:55;39.10;;;19.30;;
75535;SDS011;64119;52.070;20.804;2022-11-02T07:15:24;38.20;;;18.80;;
75535;SDS011;64119;52.070;20.804;2022-11-02T07:17:53;39.50;;;18.00;;
75535;SDS011;64119;52.070;20.804;2022-11-02T07:20:21;42.10;;;17.90;;
75535;SDS011;64119;52.070;20.804;2022-11-02T07:22:56;35.90;;;16.40;;
75535;SDS011;64119;52.070;20.804;2022-11-02T07:25:26;32.80;;;16.80;;
75535;SDS011;64119;52.070;20.804;2022-11-02T07:27:57;46.80;;;23.30;;
75535;SDS011;64119;52.070;20.804;2022-11-02T07:30:27;39.80;;;19.10;;
75535;SDS011;64119;52.070;20.804;2022-11-02T07:32:55;43.80;;;20.60;;
75535;SDS011;64119;52.070;20.804;2022-11-02T07:35:24;44.70;;;20.70;;
75535;SDS011;64119;52.070;20.804;2022-11-02T07:38:02;44.90;;;20.10;;
75535;SDS011;64119;52.070;20.804;2022-11-02T07:40:33;38.70;;;18.90;;
75535;SDS011;64119;52.070;20.804;2022-11-02T07:43:02;37.10;;;18.80;;
75535;SDS011;64119;52.070;20.804;2022-11-02T07:45:41;42.00;;;20.70;;
75535;SDS011;64119;52.070;20.804;2022-11-02T07:48:09;38.90;;;20.30;;
75535;SDS011;64119;52.070;20.804;2022-11-02T07:50:37;39.40;;;19.00;;
75535;SDS011;64119;52.070;20.804;2022-11-02T07:53:04;38.00;;;18.40;;
75535;SDS011;64119;52.070;20.804;2022-11-02T07:55:33;31.80;;;16.40;;
75535;SDS011;64119;52.070;20.804;2022-11-02T07:58:05;32.00;;;17.50;;
75535;SDS011;64119;52.070;20.804;2022-11-02T08:00:36;35.10;;;16.10;;
75535;SDS011;64119;52.070;20.804;2022-11-02T08:03:05;38.30;;;20.60;;
75535;SDS011;64119;52.070;20.804;2022-11-02T08:05:36;27.40;;;15.10;;
75535;SDS011;64119;52.070;20.804;2022-11-02T08:08:06;39.00;;;18.40;;
75535;SDS011;64119;52.070;20.804;2022-11-02T08:10:42;36.00;;;18.40;;
75535;SDS011;64119;52.070;20.804;2022-11-02T08:13:12;28.80;;;16.10;;
75535;SDS011;64119;52.070;20.804;2022-11-02T08:15:42;32.50;;;16.50;;
75535;SDS011;64119;52.070;20.804;2022-11-02T08:20:42;31.10;;;16.10;;
75535;SDS011;64119;52.070;20.804;2022-11-02T08:23:12;32.40;;;16.70;;
75535;SDS011;64119;52.070;20.804;2022-11-02T08:25:42;31.00;;;17.50;;
75535;SDS011;64119;52.070;20.804;2022-11-02T08:28:15;32.30;;;18.50;;
75535;SDS011;64119;52.070;20.804;2022-11-02T08:30:45;30.70;;;16.70;;
75535;SDS011;64119;52.070;20.804;2022-11-02T08:33:14;29.50;;;15.80;;
75535;SDS011;64119;52.070;20.804;2022-11-02T08:35:43;39.00;;;17.80;;
75535;SDS011;64119;52.070;20.804;2022-11-02T08:38:12;33.90;;;16.60;;
75535;SDS011;64119;52.070;20.804;2022-11-02T08:40:40;32.10;;;17.80;;
75535;SDS011;64119;52.070;20.804;2022-11-02T08:43:09;27.60;;;14.80;;
75535;SDS011;64119;52.070;20.804;2022-11-02T08:45:39;31.70;;;17.10;;
75535;SDS011;64119;52.070;20.804;2022-11-02T08:48:28;34.80;;;17.80;;
75535;SDS011;64119;52.070;20.804;2022-11-02T08:50:56;33.60;;;16.80;;
75535;SDS011;64119;52.070;20.804;2022-11-02T08:53:23;32.70;;;17.40;;
75535;SDS011;64119;52.070;20.804;2022-11-02T08:55:51;31.80;;;17.00;;
75535;SDS011;64119;52.070;20.804;2022-11-02T08:58:19;31.50;;;16.50;;
75535;SDS011;64119;52.070;20.804;2022-11-02T09:00:47;33.10;;;17.10;;
75535;SDS011;64119;52.070;20.804;2022-11-02T09:03:15;27.90;;;15.50;;
75535;SDS011;64119;52.070;20.804;2022-11-02T09:05:48;30.90;;;16.00;;
75535;SDS011;64119;52.070;20.804;2022-11-02T09:08:17;27.60;;;16.00;;
75535;SDS011;64119;52.070;20.804;2022-11-02T09:10:48;26.00;;;14.90;;
75535;SDS011;64119;52.070;20.804;2022-11-02T09:13:18;25.90;;;14.20;;
75535;SDS011;64119;52.070;20.804;2022-11-02T09:15:52;28.40;;;15.30;;
75535;SDS011;64119;52.070;20.804;2022-11-02T09:18:22;25.10;;;13.90;;
75535;SDS011;64119;52.070;20.804;2022-11-02T09:20:50;25.60;;;14.00;;
75535;SDS011;64119;52.070;20.804;2022-11-02T09:23:18;28.50;;;14.40;;
75535;SDS011;64119;52.070;20.804;2022-11-02T09:25:47;27.10;;;13.20;;
75535;SDS011;64119;52.070;20.804;2022-11-02T09:28:15;21.80;;;11.80;;
75535;SDS011;64119;52.070;20.804;2022-11-02T09:30:44;25.50;;;13.80;;
75535;SDS011;64119;52.070;20.804;2022-11-02T09:33:12;22.10;;;12.80;;
75535;SDS011;64119;52.070;20.804;2022-11-02T09:35:42;21.50;;;12.50;;
75535;SDS011;64119;52.070;20.804;2022-11-02T09:38:12;24.00;;;13.00;;
75535;SDS011;64119;52.070;20.804;2022-11-02T09:40:53;22.90;;;12.80;;
75535;SDS011;64119;52.070;20.804;2022-11-02T09:46:15;22.90;;;13.50;;
75535;SDS011;64119;52.070;20.804;2022-11-02T09:49:18;22.20;;;12.10;;
75535;SDS011;64119;52.070;20.804;2022-11-02T09:51:50;22.40;;;11.90;;
75535;SDS011;64119;52.070;20.804;2022-11-02T09:56:49;21.00;;;11.40;;
75535;SDS011;64119;52.070;20.804;2022-11-02T09:59:18;20.30;;;11.30;;
75535;SDS011;64119;52.070;20.804;2022-11-02T10:07:19;17.50;;;9.60;;
75535;SDS011;64119;52.070;20.804;2022-11-02T10:10:00;17.70;;;9.90;;
75535;SDS011;64119;52.070;20.804;2022-11-02T10:12:57;12.90;;;7.70;;
75535;SDS011;64119;52.070;20.804;2022-11-02T10:15:35;18.70;;;8.80;;
75535;SDS011;64119;52.070;20.804;2022-11-02T10:18:04;14.80;;;8.70;;
75535;SDS011;64119;52.070;20.804;2022-11-02T10:23:13;15.30;;;8.60;;
75535;SDS011;64119;52.070;20.804;2022-11-02T10:25:46;13.70;;;8.40;;
75535;SDS011;64119;52.070;20.804;2022-11-02T10:28:25;17.40;;;10.60;;
75535;SDS011;64119;52.070;20.804;2022-11-02T10:30:56;18.50;;;10.50;;
75535;SDS011;64119;52.070;20.804;2022-11-02T10:33:25;16.00;;;10.80;;
75535;SDS011;64119;52.070;20.804;2022-11-02T10:41:28;13.50;;;9.80;;
75535;SDS011;64119;52.070;20.804;2022-11-02T10:44:33;16.50;;;10.30;;
75535;SDS011;64119;52.070;20.804;2022-11-02T10:52:40;16.40;;;9.40;;
75535;SDS011;64119;52.070;20.804;2022-11-02T10:55:15;18.00;;;10.30;;
75535;SDS011;64119;52.070;20.804;2022-11-02T10:57:53;13.60;;;8.60;;
75535;SDS011;64119;52.070;20.804;2022-11-02T11:05:33;12.90;;;8.00;;
75535;SDS011;64119;52.070;20.804;2022-11-02T11:08:04;11.00;;;7.50;;
75535;SDS011;64119;52.070;20.804;2022-11-02T11:10:35;8.80;;;6.30;;
75535;SDS011;64119;52.070;20.804;2022-11-02T11:13:05;8.10;;;6.00;;
75535;SDS011;64119;52.070;20.804;2022-11-02T11:15:34;11.20;;;6.60;;
75535;SDS011;64119;52.070;20.804;2022-11-02T11:18:18;11.30;;;7.30;;
75535;SDS011;64119;52.070;20.804;2022-11-02T11:21:08;9.90;;;6.80;;
75535;SDS011;64119;52.070;20.804;2022-11-02T11:23:36;14.00;;;7.50;;
75535;SDS011;64119;52.070;20.804;2022-11-02T11:26:05;10.00;;;7.00;;
75535;SDS011;64119;52.070;20.804;2022-11-02T11:28:53;16.40;;;7.90;;
75535;SDS011;64119;52.070;20.804;2022-11-02T11:31:22;11.10;;;7.40;;
75535;SDS011;64119;52.070;20.804;2022-11-02T11:33:52;9.20;;;7.10;;
75535;SDS011;64119;52.070;20.804;2022-11-02T11:36:26;12.70;;;7.90;;
75535;SDS011;64119;52.070;20.804;2022-11-02T11:38:58;13.00;;;8.20;;
75535;SDS011;64119;52.070;20.804;2022-11-02T11:41:29;12.50;;;8.60;;
75535;SDS011;64119;52.070;20.804;2022-11-02T11:43:59;11.70;;;7.90;;
75535;SDS011;64119;52.070;20.804;2022-11-02T11:52:18;12.30;;;7.60;;
75535;SDS011;64119;52.070;20.804;2022-11-02T11:55:01;11.50;;;7.30;;
75535;SDS011;64119;52.070;20.804;2022-11-02T12:03:58;10.20;;;6.50;;
75535;SDS011;64119;52.070;20.804;2022-11-02T12:09:24;7.20;;;4.70;;
75535;SDS011;64119;52.070;20.804;2022-11-02T12:12:07;9.40;;;4.80;;
75535;SDS011;64119;52.070;20.804;2022-11-02T12:28:55;9.90;;;6.20;;
75535;SDS011;64119;52.070;20.804;2022-11-02T12:42:34;7.70;;;5.40;;
75535;SDS011;64119;52.070;20.804;2022-11-02T12:47:59;9.50;;;5.50;;
75535;SDS011;64119;52.070;20.804;2022-11-02T12:56:17;11.20;;;6.70;;
75535;SDS011;64119;52.070;20.804;2022-11-02T12:58:49;9.50;;;5.90;;
75535;SDS011;64119;52.070;20.804;2022-11-02T13:01:34;10.70;;;7.50;;
75535;SDS011;64119;52.070;20.804;2022-11-02T13:06:33;11.10;;;7.40;;
75535;SDS011;64119;52.070;20.804;2022-11-02T13:09:06;12.30;;;7.60;;
75535;SDS011;64119;52.070;20.804;2022-11-02T13:11:45;8.30;;;5.40;;
75535;SDS011;64119;52.070;20.804;2022-11-02T13:14:19;13.70;;;6.60;;
75535;SDS011;64119;52.070;20.804;2022-11-02T13:16:54;13.00;;;9.10;;
75535;SDS011;64119;52.070;20.804;2022-11-02T13:19:47;10.70;;;7.00;;
75535;SDS011;64119;52.070;20.804;2022-11-02T13:22:20;13.40;;;8.30;;
75535;SDS011;64119;52.070;20.804;2022-11-02T13:24:51;11.80;;;7.40;;
75535;SDS011;64119;52.070;20.804;2022-11-02T13:30:25;14.40;;;8.20;;
75535;SDS011;64119;52.070;20.804;2022-11-02T13:33:13;12.30;;;7.70;;
75535;SDS011;64119;52.070;20.804;2022-11-02T13:35:53;13.10;;;7.90;;
75535;SDS011;64119;52.070;20.804;2022-11-02T13:49:37;10.50;;;7.10;;
75535;SDS011;64119;52.070;20.804;2022-11-02T14:00:02;12.40;;;7.70;;
75535;SDS011;64119;52.070;20.804;2022-11-02T14:02:33;13.90;;;8.10;;
75535;SDS011;64119;52.070;20.804;2022-11-02T14:05:06;14.40;;;7.70;;
75535;SDS011;64119;52.070;20.804;2022-11-02T14:07:37;10.50;;;6.70;;
75535;SDS011;64119;52.070;20.804;2022-11-02T14:10:16;22.10;;;11.00;;
75535;SDS011;64119;52.070;20.804;2022-11-02T14:12:46;16.50;;;10.10;;
75535;SDS011;64119;52.070;20.804;2022-11-02T14:23:33;16.80;;;8.90;;
75535;SDS011;64119;52.070;20.804;2022-11-02T14:26:00;14.80;;;9.50;;
75535;SDS011;64119;52.070;20.804;2022-11-02T14:28:32;18.60;;;10.80;;
75535;SDS011;64119;52.070;20.804;2022-11-02T14:42:08;22.90;;;10.40;;
75535;SDS011;64119;52.070;20.804;2022-11-02T14:47:29;16.30;;;9.70;;
75535;SDS011;64119;52.070;20.804;2022-11-02T14:53:02;21.40;;;10.20;;
75535;SDS011;64119;52.070;20.804;2022-11-02T15:08:50;20.10;;;12.00;;
75535;SDS011;64119;52.070;20.804;2022-11-02T15:14:30;17.20;;;9.50;;
75535;SDS011;64119;52.070;20.804;2022-11-02T15:16:59;19.70;;;10.70;;
75535;SDS011;64119;52.070;20.804;2022-11-02T15:19:46;15.90;;;9.70;;
75535;SDS011;64119;52.070;20.804;2022-11-02T15:25:05;17.90;;;10.20;;
75535;SDS011;64119;52.070;20.804;2022-11-02T15:27:40;19.50;;;11.00;;
75535;SDS011;64119;52.070;20.804;2022-11-02T15:30:13;23.80;;;12.00;;
75535;SDS011;64119;52.070;20.804;2022-11-02T15:32:44;24.60;;;13.70;;
75535;SDS011;64119;52.070;20.804;2022-11-02T15:35:20;21.70;;;12.30;;
75535;SDS011;64119;52.070;20.804;2022-11-02T15:37:50;25.00;;;13.20;;
75535;SDS011;64119;52.070;20.804;2022-11-02T15:40:45;22.10;;;12.30;;
75535;SDS011;64119;52.070;20.804;2022-11-02T16:05:03;18.10;;;9.80;;
75535;SDS011;64119;52.070;20.804;2022-11-02T16:07:33;21.80;;;10.00;;
75535;SDS011;64119;52.070;20.804;2022-11-02T16:13:05;17.00;;;9.40;;
75535;SDS011;64119;52.070;20.804;2022-11-02T16:15:39;16.90;;;9.10;;
75535;SDS011;64119;52.070;20.804;2022-11-02T16:20:50;15.00;;;7.50;;
75535;SDS011;64119;52.070;20.804;2022-11-02T16:23:21;18.00;;;9.00;;
75535;SDS011;64119;52.070;20.804;2022-11-02T16:25:52;18.40;;;10.90;;
75535;SDS011;64119;52.070;20.804;2022-11-02T16:31:06;18.20;;;10.10;;
75535;SDS011;64119;52.070;20.804;2022-11-02T16:33:46;24.00;;;10.90;;
75535;SDS011;64119;52.070;20.804;2022-11-02T16:36:18;20.70;;;10.70;;
75535;SDS011;64119;52.070;20.804;2022-11-02T16:39:01;16.20;;;10.00;;
75535;SDS011;64119;52.070;20.804;2022-11-02T16:41:33;16.50;;;8.70;;
75535;SDS011;64119;52.070;20.804;2022-11-02T16:44:09;18.20;;;9.80;;
75535;SDS011;64119;52.070;20.804;2022-11-02T16:49:17;17.00;;;9.10;;
75535;SDS011;64119;52.070;20.804;2022-11-02T16:51:47;21.20;;;9.90;;
75535;SDS011;64119;52.070;20.804;2022-11-02T16:54:24;17.20;;;9.30;;
75535;SDS011;64119;52.070;20.804;2022-11-02T16:56:53;15.30;;;9.20;;
75535;SDS011;64119;52.070;20.804;2022-11-02T16:59:25;14.80;;;7.70;;
75535;SDS011;64119;52.070;20.804;2022-11-02T17:01:56;11.40;;;7.00;;
75535;SDS011;64119;52.070;20.804;2022-11-02T17:04:30;12.10;;;7.00;;
75535;SDS011;64119;52.070;20.804;2022-11-02T17:07:07;10.90;;;6.70;;
75535;SDS011;64119;52.070;20.804;2022-11-02T17:09:39;13.30;;;7.00;;
75535;SDS011;64119;52.070;20.804;2022-11-02T17:12:14;15.20;;;6.60;;
75535;SDS011;64119;52.070;20.804;2022-11-02T17:14:44;12.50;;;6.60;;
75535;SDS011;64119;52.070;20.804;2022-11-02T17:24:47;13.20;;;6.60;;
75535;SDS011;64119;52.070;20.804;2022-11-02T17:27:25;13.00;;;6.50;;
75535;SDS011;64119;52.070;20.804;2022-11-02T17:30:28;12.50;;;6.10;;
75535;SDS011;64119;52.070;20.804;2022-11-02T17:33:08;12.20;;;5.70;;
75535;SDS011;64119;52.070;20.804;2022-11-02T17:35:45;10.10;;;5.60;;
75535;SDS011;64119;52.070;20.804;2022-11-02T17:38:15;8.80;;;5.00;;
75535;SDS011;64119;52.070;20.804;2022-11-02T17:52:10;12.20;;;6.00;;
75535;SDS011;64119;52.070;20.804;2022-11-02T17:54:40;12.90;;;5.80;;
75535;SDS011;64119;52.070;20.804;2022-11-02T17:57:12;12.10;;;5.80;;
75535;SDS011;64119;52.070;20.804;2022-11-02T17:59:41;8.80;;;4.60;;
75535;SDS011;64119;52.070;20.804;2022-11-02T18:02:12;9.90;;;4.30;;
75535;SDS011;64119;52.070;20.804;2022-11-02T18:04:41;9.90;;;4.50;;
75535;SDS011;64119;52.070;20.804;2022-11-02T18:07:09;9.90;;;4.50;;
75535;SDS011;64119;52.070;20.804;2022-11-02T18:09:38;11.70;;;5.20;;
75535;SDS011;64119;52.070;20.804;2022-11-02T18:12:08;12.50;;;5.00;;
75535;SDS011;64119;52.070;20.804;2022-11-02T18:14:39;8.90;;;4.80;;
75535;SDS011;64119;52.070;20.804;2022-11-02T18:17:08;8.90;;;4.10;;
75535;SDS011;64119;52.070;20.804;2022-11-02T18:19:35;9.00;;;4.00;;
75535;SDS011;64119;52.070;20.804;2022-11-02T18:22:03;8.30;;;3.50;;
75535;SDS011;64119;52.070;20.804;2022-11-02T18:24:31;10.00;;;3.90;;
75535;SDS011;64119;52.070;20.804;2022-11-02T18:26:59;9.70;;;4.60;;
75535;SDS011;64119;52.070;20.804;2022-11-02T18:29:26;11.40;;;3.60;;
75535;SDS011;64119;52.070;20.804;2022-11-02T18:31:54;12.30;;;3.30;;
75535;SDS011;64119;52.070;20.804;2022-11-02T18:34:22;9.50;;;4.10;;
75535;SDS011;64119;52.070;20.804;2022-11-02T18:36:50;11.50;;;3.90;;
75535;SDS011;64119;52.070;20.804;2022-11-02T18:39:18;10.70;;;4.70;;
75535;SDS011;64119;52.070;20.804;2022-11-02T18:41:46;7.60;;;3.40;;
75535;SDS011;64119;52.070;20.804;2022-11-02T18:44:14;13.70;;;4.50;;